createdAt,value
2017-09-27T00:00:42.757Z,99.99
2017-09-27T00:01:42.777Z,99.99
2017-09-27T00:02:42.476Z,99.99
2017-09-27T00:03:42.824Z,99.99
2017-09-27T00:04:42.837Z,99.99
2017-09-27T00:05:42.862Z,99.99
2017-09-27T00:06:42.879Z,99.99
2017-09-27T00:07:42.907Z,99.99
2017-09-27T00:08:42.926Z,99.99
2017-09-27T00:09:42.949Z,99.99
2017-09-27T00:11:42.990Z,99.99
2017-09-27T00:12:43.016Z,99.99
2017-09-27T00:13:43.032Z,99.99
2017-09-27T00:14:43.057Z,99.99
2017-09-27T00:15:43.077Z,99.99
2017-09-27T00:16:43.097Z,99.99
2017-09-27T00:17:43.122Z,99.99
2017-09-27T00:18:43.142Z,99.99
2017-09-27T00:19:43.165Z,99.99
2017-09-27T00:20:43.188Z,99.99
2017-09-27T00:21:43.208Z,99.99
2017-09-27T00:22:43.232Z,99.99
2017-09-27T00:23:43.253Z,99.99
2017-09-27T00:24:42.955Z,99.99
2017-09-27T00:25:57.886Z,99.99
2017-09-27T00:26:43.328Z,99.99
2017-09-27T00:27:43.352Z,99.99
2017-09-27T00:28:43.359Z,99.99
2017-09-27T00:30:43.407Z,99.99
2017-09-27T00:31:43.432Z,99.99
2017-09-27T00:32:43.129Z,99.99
2017-09-27T00:33:43.469Z,99.99
2017-09-27T00:34:43.172Z,99.99
2017-09-27T00:35:43.512Z,99.99
2017-09-27T00:36:43.534Z,99.99
2017-09-27T00:37:43.556Z,99.99
2017-09-27T00:38:43.260Z,99.99
2017-09-27T00:39:43.597Z,99.99
2017-09-27T00:40:43.624Z,99.99
2017-09-27T00:41:58.234Z,99.99
2017-09-27T00:42:43.669Z,99.99
2017-09-27T00:43:43.687Z,99.99
2017-09-27T00:44:43.708Z,99.99
2017-09-27T00:46:43.433Z,99.99
2017-09-27T00:47:43.455Z,99.99
2017-09-27T00:48:43.793Z,99.99
2017-09-27T00:49:43.499Z,99.99
2017-09-27T00:50:43.520Z,99.99
2017-09-27T00:51:43.858Z,99.99
2017-09-27T00:52:43.882Z,99.99
2017-09-27T00:53:43.902Z,99.99
2017-09-27T00:54:43.926Z,99.99
2017-09-27T00:55:43.945Z,99.99
2017-09-27T00:56:43.649Z,99.99
2017-09-27T00:57:58.581Z,99.99
2017-09-27T00:58:43.693Z,99.99
2017-09-27T00:59:44.034Z,99.99
2017-09-27T01:00:43.738Z,99.99
2017-09-27T01:01:44.080Z,99.99
2017-09-27T01:02:44.099Z,99.99
2017-09-27T01:03:44.123Z,99.99
2017-09-27T01:04:44.143Z,99.99
2017-09-27T01:05:44.164Z,99.99
2017-09-27T01:06:43.866Z,99.99
2017-09-27T01:07:44.207Z,99.99
2017-09-27T01:08:44.230Z,99.99
2017-09-27T01:09:44.251Z,99.99
2017-09-27T01:10:44.273Z,99.99
2017-09-27T01:11:43.977Z,99.99
2017-09-27T01:12:44.323Z,99.99
2017-09-27T01:13:58.929Z,99.99
2017-09-27T01:15:44.382Z,99.99
2017-09-27T01:16:44.403Z,99.99
2017-09-27T01:17:44.421Z,99.99
2017-09-27T01:18:44.452Z,99.99
2017-09-27T01:19:44.469Z,99.99
2017-09-27T01:20:44.489Z,99.99
2017-09-27T01:21:44.514Z,99.99
2017-09-27T01:22:44.532Z,99.99
2017-09-27T01:23:44.553Z,99.99
2017-09-27T01:24:44.573Z,99.99
2017-09-27T01:25:44.597Z,99.99
2017-09-27T01:26:44.619Z,99.99
2017-09-27T01:27:44.643Z,99.99
2017-09-27T01:28:59.257Z,99.99
2017-09-27T01:29:44.685Z,99.99
2017-09-27T01:30:44.707Z,99.99
2017-09-27T01:31:44.732Z,99.99
2017-09-27T01:32:44.431Z,99.99
2017-09-27T01:33:44.774Z,99.99
2017-09-27T01:34:44.795Z,99.99
2017-09-27T01:35:44.498Z,99.99
2017-09-27T01:36:44.836Z,99.99
2017-09-27T01:37:44.857Z,99.99
2017-09-27T01:38:44.877Z,99.99
2017-09-27T01:40:44.613Z,99.99
2017-09-27T01:41:44.945Z,99.99
2017-09-27T01:42:44.965Z,99.99
2017-09-27T01:43:44.985Z,99.99
2017-09-27T01:44:45.010Z,99.99
2017-09-27T01:45:45.029Z,99.99
2017-09-27T01:46:45.053Z,99.99
2017-09-27T01:49:45.116Z,99.99
2017-09-27T01:50:45.137Z,99.99
2017-09-27T01:51:44.841Z,99.99
2017-09-27T01:52:45.183Z,99.99
2017-09-27T01:53:45.207Z,99.99
2017-09-27T01:54:45.221Z,99.99
2017-09-27T01:55:45.245Z,99.99
2017-09-27T01:56:45.268Z,99.99
2017-09-27T01:57:45.289Z,99.99
2017-09-27T01:58:45.314Z,99.99
2017-09-27T01:59:45.328Z,99.99
2017-09-27T02:00:59.945Z,99.99
2017-09-27T02:01:45.377Z,99.99
2017-09-27T02:02:45.397Z,99.99
2017-09-27T02:03:45.417Z,99.99
2017-09-27T02:05:45.464Z,99.99
2017-09-27T02:06:45.484Z,99.99
2017-09-27T02:07:45.509Z,99.99
2017-09-27T02:08:45.528Z,99.99
2017-09-27T02:09:45.583Z,99.99
2017-09-27T02:10:45.572Z,99.99
2017-09-27T02:11:45.591Z,99.99
2017-09-27T02:12:45.297Z,99.99
2017-09-27T02:13:45.636Z,99.99
2017-09-27T02:14:45.655Z,99.99
2017-09-27T02:15:45.678Z,99.99
2017-09-27T02:17:00.294Z,99.99
2017-09-27T02:17:45.721Z,99.99
2017-09-27T02:18:45.744Z,99.99
2017-09-27T02:19:45.451Z,99.99
2017-09-27T02:20:45.787Z,99.99
2017-09-27T02:21:45.492Z,99.99
2017-09-27T02:22:45.835Z,99.99
2017-09-27T02:23:45.856Z,99.99
2017-09-27T02:24:45.877Z,99.99
2017-09-27T02:25:45.578Z,99.99
2017-09-27T02:26:45.917Z,99.99
2017-09-27T02:27:45.941Z,99.99
2017-09-27T02:28:45.964Z,99.99
2017-09-27T02:29:45.983Z,99.99
2017-09-27T02:30:46.015Z,99.99
2017-09-27T02:33:00.643Z,99.99
2017-09-27T02:33:46.073Z,99.99
2017-09-27T02:34:46.093Z,99.99
2017-09-27T02:35:46.117Z,99.99
2017-09-27T02:36:46.147Z,99.99
2017-09-27T02:37:45.844Z,99.99
2017-09-27T02:38:45.860Z,99.99
2017-09-27T02:39:46.202Z,99.99
2017-09-27T02:40:46.225Z,99.99
2017-09-27T02:41:46.245Z,99.99
2017-09-27T02:42:46.265Z,99.99
2017-09-27T02:43:46.288Z,99.99
2017-09-27T02:44:46.311Z,99.99
2017-09-27T02:45:46.334Z,99.99
2017-09-27T02:46:46.036Z,99.99
2017-09-27T02:47:46.375Z,99.99
2017-09-27T02:49:00.987Z,99.99
2017-09-27T02:49:46.418Z,99.99
2017-09-27T02:52:46.491Z,99.99
2017-09-27T02:53:46.509Z,99.99
2017-09-27T02:54:46.208Z,99.99
2017-09-27T02:55:46.551Z,99.99
2017-09-27T02:56:46.573Z,99.99
2017-09-27T02:57:46.601Z,99.99
2017-09-27T02:58:46.612Z,99.99
2017-09-27T02:59:46.318Z,99.99
2017-09-27T03:00:46.656Z,99.99
2017-09-27T03:01:46.360Z,99.99
2017-09-27T03:04:01.316Z,99.99
2017-09-27T03:07:46.811Z,99.99
2017-09-27T03:08:46.834Z,99.99
2017-09-27T03:09:46.859Z,99.99
2017-09-27T03:10:46.558Z,99.99
2017-09-27T03:11:46.898Z,99.99
2017-09-27T03:12:46.919Z,99.99
2017-09-27T03:13:46.939Z,99.99
2017-09-27T03:14:46.963Z,99.99
2017-09-27T03:15:46.667Z,99.99
2017-09-27T03:16:47.007Z,99.99
2017-09-27T03:17:47.028Z,99.99
2017-09-27T03:18:47.049Z,99.99
2017-09-27T03:19:47.072Z,99.99
2017-09-27T03:20:47.095Z,99.99
2017-09-27T03:24:46.864Z,99.99
2017-09-27T03:25:47.201Z,99.99
2017-09-27T03:26:47.225Z,99.99
2017-09-27T03:27:47.242Z,99.99
2017-09-27T03:28:47.268Z,99.99
2017-09-27T03:29:47.287Z,99.99
2017-09-27T03:30:47.315Z,99.99
2017-09-27T03:31:47.332Z,99.99
2017-09-27T03:32:47.353Z,99.99
2017-09-27T03:33:47.377Z,99.99
2017-09-27T03:34:47.398Z,99.99
2017-09-27T03:36:02.011Z,99.99
2017-09-27T03:36:47.442Z,99.99
2017-09-27T03:37:47.479Z,99.99
2017-09-27T03:38:47.490Z,99.99
2017-09-27T03:40:47.213Z,99.99
2017-09-27T03:41:47.548Z,99.99
2017-09-27T03:42:47.572Z,99.99
2017-09-27T03:43:47.594Z,99.99
2017-09-27T03:44:47.618Z,99.99
2017-09-27T03:45:47.316Z,99.99
2017-09-27T03:46:47.657Z,99.99
2017-09-27T03:47:47.681Z,99.99
2017-09-27T03:48:47.700Z,99.99
2017-09-27T03:49:47.722Z,99.99
2017-09-27T03:50:47.743Z,99.99
2017-09-27T03:52:02.358Z,99.99
2017-09-27T03:52:47.787Z,99.99
2017-09-27T03:53:47.809Z,99.99
2017-09-27T03:54:47.828Z,99.99
2017-09-27T03:55:47.534Z,99.99
2017-09-27T03:57:47.582Z,99.99
2017-09-27T03:58:47.598Z,99.99
2017-09-27T03:59:47.623Z,99.99
2017-09-27T04:00:47.966Z,99.99
2017-09-27T04:01:47.982Z,99.99
2017-09-27T04:02:48.006Z,99.99
2017-09-27T04:03:47.710Z,99.99
2017-09-27T04:04:47.728Z,99.99
2017-09-27T04:06:47.772Z,99.99
2017-09-27T04:08:02.705Z,99.99
2017-09-27T04:08:48.133Z,99.99
2017-09-27T04:09:48.158Z,99.99
2017-09-27T04:10:48.175Z,99.99
2017-09-27T04:12:48.223Z,99.99
2017-09-27T04:13:48.248Z,99.99
2017-09-27T04:14:48.265Z,99.99
2017-09-27T04:15:48.300Z,99.99
2017-09-27T04:16:48.308Z,99.99
2017-09-27T04:17:48.333Z,99.99
2017-09-27T04:18:48.350Z,99.99
2017-09-27T04:19:48.372Z,99.99
2017-09-27T04:20:48.395Z,99.99
2017-09-27T04:21:48.417Z,99.99
2017-09-27T04:22:48.437Z,99.99
2017-09-27T04:24:03.050Z,99.99
2017-09-27T04:24:48.480Z,99.99
2017-09-27T04:25:48.504Z,99.99
2017-09-27T04:26:48.209Z,99.99
2017-09-27T04:27:48.545Z,99.99
2017-09-27T04:28:48.572Z,99.99
2017-09-27T04:29:48.589Z,99.99
2017-09-27T04:30:48.615Z,99.99
2017-09-27T04:31:48.639Z,99.99
2017-09-27T04:32:48.660Z,99.99
2017-09-27T04:33:48.676Z,99.99
2017-09-27T04:34:48.697Z,99.99
2017-09-27T04:35:48.719Z,99.99
2017-09-27T04:36:48.744Z,99.99
2017-09-27T04:37:48.445Z,99.99
2017-09-27T04:39:03.377Z,99.99
2017-09-27T04:39:48.809Z,99.99
2017-09-27T04:40:48.834Z,99.99
2017-09-27T04:41:48.851Z,99.99
2017-09-27T04:42:48.873Z,99.99
2017-09-27T04:43:48.896Z,99.99
2017-09-27T04:44:48.915Z,99.99
2017-09-27T04:45:48.618Z,99.99
2017-09-27T04:46:48.955Z,99.99
2017-09-27T04:47:48.979Z,99.99
2017-09-27T04:48:48.688Z,99.99
2017-09-27T04:49:49.024Z,99.99
2017-09-27T04:50:49.047Z,99.99
2017-09-27T04:51:49.068Z,99.99
2017-09-27T04:52:48.770Z,99.99
2017-09-27T04:53:48.794Z,99.99
2017-09-27T04:55:48.836Z,99.99
2017-09-27T04:57:49.198Z,99.99
2017-09-27T04:58:49.221Z,99.99
2017-09-27T04:59:49.242Z,99.99
2017-09-27T05:01:48.968Z,99.99
2017-09-27T05:02:49.307Z,99.99
2017-09-27T05:03:49.009Z,99.99
2017-09-27T05:04:49.350Z,99.99
2017-09-27T05:06:49.074Z,99.99
2017-09-27T05:07:49.413Z,99.99
2017-09-27T05:08:49.437Z,99.99
2017-09-27T05:09:49.459Z,99.99
2017-09-27T05:11:04.072Z,99.99
2017-09-27T05:11:49.502Z,99.99
2017-09-27T05:12:49.527Z,99.99
2017-09-27T05:13:49.544Z,99.99
2017-09-27T05:14:49.566Z,99.99
2017-09-27T05:15:49.589Z,99.99
2017-09-27T05:16:49.610Z,99.99
2017-09-27T05:17:49.631Z,99.99
2017-09-27T05:18:49.652Z,99.99
2017-09-27T05:19:49.676Z,99.99
2017-09-27T05:20:49.708Z,99.99
2017-09-27T05:21:49.450Z,99.99
2017-09-27T05:22:49.746Z,99.99
2017-09-27T05:23:49.763Z,99.99
2017-09-27T05:24:49.464Z,99.99
2017-09-27T05:25:49.806Z,99.99
2017-09-27T05:27:04.418Z,99.99
2017-09-27T05:27:49.900Z,99.99
2017-09-27T05:28:49.871Z,99.99
2017-09-27T05:29:49.892Z,99.99
2017-09-27T05:30:49.918Z,99.99
2017-09-27T05:32:49.962Z,99.99
2017-09-27T05:33:49.981Z,99.99
2017-09-27T05:34:50.001Z,99.99
2017-09-27T05:35:50.023Z,99.99
2017-09-27T05:36:50.050Z,99.99
2017-09-27T05:37:50.067Z,99.99
2017-09-27T05:38:50.091Z,99.99
2017-09-27T05:39:49.792Z,99.99
2017-09-27T05:40:50.131Z,99.99
2017-09-27T05:41:50.155Z,99.99
2017-09-27T05:43:04.765Z,99.99
2017-09-27T05:43:50.205Z,99.99
2017-09-27T05:44:50.219Z,99.99
2017-09-27T05:46:50.260Z,99.99
2017-09-27T05:47:50.285Z,99.99
2017-09-27T05:48:49.990Z,99.99
2017-09-27T05:49:50.328Z,99.99
2017-09-27T05:50:50.352Z,99.99
2017-09-27T05:51:50.372Z,99.99
2017-09-27T05:52:50.392Z,99.99
2017-09-27T05:53:50.418Z,99.99
2017-09-27T05:54:50.443Z,99.99
2017-09-27T05:55:50.461Z,99.99
2017-09-27T05:56:50.483Z,99.99
2017-09-27T05:57:50.502Z,99.99
2017-09-27T05:59:05.116Z,99.99
2017-09-27T05:59:50.546Z,99.99
2017-09-27T06:00:50.569Z,99.99
2017-09-27T06:01:50.589Z,99.99
2017-09-27T06:02:50.295Z,99.99
2017-09-27T06:03:50.646Z,99.99
2017-09-27T06:04:50.656Z,99.99
2017-09-27T06:05:50.677Z,99.99
2017-09-27T06:06:50.382Z,99.99
2017-09-27T06:07:50.725Z,99.99
2017-09-27T06:08:50.426Z,99.99
2017-09-27T06:09:50.448Z,99.99
2017-09-27T06:10:50.787Z,99.99
2017-09-27T06:11:50.810Z,99.99
2017-09-27T06:12:50.519Z,99.99
2017-09-27T06:14:05.446Z,99.99
2017-09-27T06:14:50.876Z,99.99
2017-09-27T06:15:50.897Z,99.99
2017-09-27T06:16:50.919Z,99.99
2017-09-27T06:17:50.943Z,99.99
2017-09-27T06:18:50.646Z,99.99
2017-09-27T06:19:50.988Z,99.99
2017-09-27T06:20:51.008Z,99.99
2017-09-27T06:21:51.030Z,99.99
2017-09-27T06:22:51.051Z,99.99
2017-09-27T06:23:51.073Z,99.99
2017-09-27T06:24:50.777Z,99.99
2017-09-27T06:25:51.120Z,99.99
2017-09-27T06:26:51.139Z,99.99
2017-09-27T06:27:51.160Z,99.99
2017-09-27T06:28:51.188Z,99.99
2017-09-27T06:30:51.239Z,99.99
2017-09-27T06:32:51.273Z,99.99
2017-09-27T06:33:51.304Z,99.99
2017-09-27T06:34:51.323Z,99.99
2017-09-27T06:35:51.020Z,99.99
2017-09-27T06:36:51.358Z,99.99
2017-09-27T06:37:51.111Z,99.99
2017-09-27T06:38:51.407Z,99.99
2017-09-27T06:39:51.430Z,99.99
2017-09-27T06:40:51.446Z,99.99
2017-09-27T06:41:51.469Z,99.99
2017-09-27T06:42:51.172Z,99.99
2017-09-27T06:43:51.195Z,99.99
2017-09-27T06:44:51.534Z,99.99
2017-09-27T06:46:06.148Z,99.99
2017-09-27T06:46:51.261Z,99.99
2017-09-27T06:47:51.603Z,99.99
2017-09-27T06:48:51.626Z,99.99
2017-09-27T06:49:51.649Z,99.99
2017-09-27T06:50:51.665Z,99.99
2017-09-27T06:51:51.689Z,99.99
2017-09-27T06:52:51.710Z,99.99
2017-09-27T06:53:51.732Z,99.99
2017-09-27T06:54:51.754Z,99.99
2017-09-27T06:55:51.776Z,99.99
2017-09-27T06:56:51.797Z,99.99
2017-09-27T06:57:51.819Z,99.99
2017-09-27T06:58:51.847Z,99.99
2017-09-27T06:59:51.862Z,99.99
2017-09-27T07:00:51.888Z,99.99
2017-09-27T07:02:06.502Z,99.99
2017-09-27T07:02:51.934Z,99.99
2017-09-27T07:03:51.953Z,99.99
2017-09-27T07:05:52.001Z,99.99
2017-09-27T07:06:52.025Z,99.99
2017-09-27T07:07:52.042Z,99.99
2017-09-27T07:08:52.066Z,99.99
2017-09-27T07:09:51.769Z,99.99
2017-09-27T07:10:52.108Z,99.99
2017-09-27T07:11:52.133Z,99.99
2017-09-27T07:12:52.152Z,99.99
2017-09-27T07:13:52.181Z,99.99
2017-09-27T07:14:52.203Z,99.99
2017-09-27T07:15:52.227Z,99.99
2017-09-27T07:16:52.245Z,99.99
2017-09-27T07:18:06.855Z,99.99
2017-09-27T07:19:52.309Z,99.99
2017-09-27T07:21:52.354Z,99.99
2017-09-27T07:23:52.397Z,99.99
2017-09-27T07:24:52.425Z,99.99
2017-09-27T07:25:52.440Z,99.99
2017-09-27T07:26:52.466Z,99.99
2017-09-27T07:27:52.489Z,99.99
2017-09-27T07:28:52.508Z,99.99
2017-09-27T07:29:52.531Z,99.99
2017-09-27T07:30:52.551Z,99.99
2017-09-27T07:31:52.572Z,99.99
2017-09-27T07:32:52.606Z,99.99
2017-09-27T07:34:07.212Z,99.99
2017-09-27T07:34:52.646Z,99.99
2017-09-27T07:35:52.671Z,99.99
2017-09-27T07:36:52.685Z,99.99
2017-09-27T07:38:52.730Z,99.99
2017-09-27T07:39:52.752Z,99.99
2017-09-27T07:40:52.776Z,99.99
2017-09-27T07:41:52.799Z,99.99
2017-09-27T07:42:52.820Z,99.99
2017-09-27T07:43:52.842Z,99.99
2017-09-27T07:44:52.865Z,99.99
2017-09-27T07:45:52.887Z,99.99
2017-09-27T07:46:52.917Z,99.99
2017-09-27T07:47:52.943Z,99.99
2017-09-27T07:49:07.547Z,99.99
2017-09-27T07:49:52.975Z,99.99
2017-09-27T07:50:52.999Z,99.99
2017-09-27T07:51:53.023Z,99.99
2017-09-27T07:52:52.727Z,99.99
2017-09-27T07:53:53.071Z,99.99
2017-09-27T07:54:53.089Z,99.99
2017-09-27T07:55:53.116Z,99.99
2017-09-27T07:56:53.153Z,99.99
2017-09-27T07:57:53.157Z,99.99
2017-09-27T07:58:53.186Z,99.99
2017-09-27T07:59:53.204Z,99.99
2017-09-27T08:00:53.230Z,99.99
2017-09-27T08:01:53.248Z,99.99
2017-09-27T08:02:53.272Z,99.99
2017-09-27T08:03:53.299Z,99.99
2017-09-27T08:04:53.316Z,99.99
2017-09-27T08:05:53.020Z,99.99
2017-09-27T08:06:53.361Z,99.99
2017-09-27T08:08:53.090Z,99.99
2017-09-27T08:09:53.428Z,99.99
2017-09-27T08:10:53.452Z,99.99
2017-09-27T08:11:53.156Z,99.99
2017-09-27T08:12:53.503Z,99.99
2017-09-27T08:13:53.520Z,99.99
2017-09-27T08:14:53.539Z,99.99
2017-09-27T08:15:53.249Z,99.99
2017-09-27T08:16:53.588Z,99.99
2017-09-27T08:17:53.611Z,99.99
2017-09-27T08:18:53.633Z,99.99
2017-09-27T08:19:53.660Z,99.99
2017-09-27T08:21:08.270Z,99.99
2017-09-27T08:21:53.704Z,99.99
2017-09-27T08:22:53.724Z,99.99
2017-09-27T08:23:53.747Z,99.99
2017-09-27T08:25:53.793Z,99.99
2017-09-27T08:26:53.502Z,99.99
2017-09-27T08:27:53.521Z,99.99
2017-09-27T08:28:53.544Z,99.99
2017-09-27T08:29:53.566Z,99.99
2017-09-27T08:30:53.907Z,99.99
2017-09-27T08:31:54.146Z,99.99
2017-09-27T08:32:53.953Z,99.99
2017-09-27T08:33:53.658Z,99.99
2017-09-27T08:34:53.995Z,99.99
2017-09-27T08:35:54.021Z,99.99
2017-09-27T08:37:08.636Z,99.99
2017-09-27T08:37:54.066Z,99.99
2017-09-27T08:38:54.090Z,99.99
2017-09-27T08:39:54.116Z,99.99
2017-09-27T08:40:54.136Z,99.99
2017-09-27T08:41:54.158Z,99.99
2017-09-27T08:42:54.183Z,99.99
2017-09-27T08:43:54.204Z,99.99
2017-09-27T08:44:54.229Z,99.99
2017-09-27T08:45:54.252Z,99.99
2017-09-27T08:46:54.275Z,99.99
2017-09-27T08:47:54.301Z,99.99
2017-09-27T08:48:54.319Z,99.99
2017-09-27T08:49:54.343Z,99.99
2017-09-27T08:50:54.372Z,99.99
2017-09-27T08:51:54.389Z,99.99
2017-09-27T08:53:09.004Z,99.99
2017-09-27T08:53:54.433Z,99.99
2017-09-27T08:54:54.460Z,99.99
2017-09-27T08:55:54.162Z,99.99
2017-09-27T08:56:54.505Z,99.99
2017-09-27T08:57:54.534Z,99.99
2017-09-27T08:58:54.551Z,99.99
2017-09-27T08:59:54.573Z,99.99
2017-09-27T09:00:54.595Z,99.99
2017-09-27T09:01:54.301Z,99.99
2017-09-27T09:02:54.645Z,99.99
2017-09-27T09:03:54.665Z,99.99
2017-09-27T09:04:54.691Z,99.99
2017-09-27T09:05:54.712Z,99.99
2017-09-27T09:06:54.735Z,99.99
2017-09-27T09:07:54.760Z,99.99
2017-09-27T09:09:09.374Z,99.99
2017-09-27T09:09:54.486Z,99.99
2017-09-27T09:10:54.830Z,99.99
2017-09-27T09:11:54.853Z,99.99
2017-09-27T09:12:54.873Z,99.99
2017-09-27T09:13:54.899Z,99.99
2017-09-27T09:15:54.947Z,99.99
2017-09-27T09:16:54.969Z,99.99
2017-09-27T09:17:54.992Z,99.99
2017-09-27T09:18:55.013Z,99.99
2017-09-27T09:19:55.038Z,99.99
2017-09-27T09:20:55.066Z,99.99
2017-09-27T09:21:55.088Z,99.99
2017-09-27T09:22:55.107Z,99.99
2017-09-27T09:24:09.726Z,99.99
2017-09-27T09:24:55.158Z,99.99
2017-09-27T09:25:55.186Z,99.99
2017-09-27T09:26:55.206Z,99.99
2017-09-27T09:27:55.238Z,99.99
2017-09-27T09:28:55.251Z,99.99
2017-09-27T09:29:55.276Z,99.99
2017-09-27T09:30:54.983Z,99.99
2017-09-27T09:31:55.320Z,99.99
2017-09-27T09:32:55.346Z,99.99
2017-09-27T09:33:55.370Z,99.99
2017-09-27T09:34:55.395Z,99.99
2017-09-27T09:35:55.102Z,99.99
2017-09-27T09:36:55.449Z,99.99
2017-09-27T09:37:55.148Z,99.99
2017-09-27T09:38:55.493Z,99.99
2017-09-27T09:40:55.538Z,99.99
2017-09-27T09:41:55.563Z,99.99
2017-09-27T09:42:55.592Z,99.99
2017-09-27T09:43:55.612Z,99.99
2017-09-27T09:44:55.635Z,99.99
2017-09-27T09:45:55.660Z,99.99
2017-09-27T09:46:55.685Z,99.99
2017-09-27T09:47:55.391Z,99.99
2017-09-27T09:48:55.729Z,99.99
2017-09-27T09:49:55.438Z,99.99
2017-09-27T09:50:55.813Z,99.99
2017-09-27T09:51:55.488Z,99.99
2017-09-27T09:52:55.833Z,99.99
2017-09-27T09:53:55.853Z,99.99
2017-09-27T09:54:55.875Z,99.99
2017-09-27T09:56:10.495Z,99.99
2017-09-27T09:56:55.927Z,99.99
2017-09-27T09:59:56.004Z,99.99
2017-09-27T10:00:55.706Z,99.99
2017-09-27T10:01:56.049Z,99.99
2017-09-27T10:02:56.071Z,99.99
2017-09-27T10:03:56.097Z,99.73
2017-09-27T10:04:56.119Z,99.54
2017-09-27T10:05:55.831Z,99.92
2017-09-27T10:06:55.849Z,99.83
2017-09-27T10:07:56.197Z,99.78
2017-09-27T10:08:56.216Z,99.73
2017-09-27T10:09:56.242Z,99.73
2017-09-27T10:10:55.950Z,99.99
2017-09-27T10:12:10.893Z,99.99
2017-09-27T10:12:55.999Z,99.99
2017-09-27T10:14:56.050Z,99.99
2017-09-27T10:15:56.073Z,99.59
2017-09-27T10:16:56.095Z,98.34
2017-09-27T10:17:56.123Z,98.34
2017-09-27T10:18:56.464Z,98.44
2017-09-27T10:19:56.170Z,97.52
2017-09-27T10:20:56.526Z,97.62
2017-09-27T10:21:56.543Z,98.58
2017-09-27T10:22:56.568Z,98.68
2017-09-27T10:23:56.589Z,97.81
2017-09-27T10:24:56.293Z,98.58
2017-09-27T10:25:56.319Z,99.15
2017-09-27T10:26:56.660Z,98.19
2017-09-27T10:28:11.275Z,98.68
2017-09-27T10:28:56.707Z,98.58
2017-09-27T10:29:56.732Z,98.48
2017-09-27T10:30:56.760Z,98.39
2017-09-27T10:31:56.466Z,98.39
2017-09-27T10:33:56.830Z,97.52
2017-09-27T10:34:56.856Z,98.68
2017-09-27T10:35:56.882Z,98.96
2017-09-27T10:36:56.908Z,99.15
2017-09-27T10:37:56.609Z,98.29
2017-09-27T10:38:56.633Z,98.58
2017-09-27T10:39:56.976Z,98.19
2017-09-27T10:40:57.003Z,97.86
2017-09-27T10:41:57.039Z,97.67
2017-09-27T10:42:57.051Z,97.96
2017-09-27T10:44:11.666Z,97.62
2017-09-27T10:44:57.100Z,98.1
2017-09-27T10:45:57.126Z,98.39
2017-09-27T10:46:56.831Z,98.39
2017-09-27T10:47:57.178Z,99.25
2017-09-27T10:48:57.197Z,97.62
2017-09-27T10:49:57.228Z,97.28
2017-09-27T10:50:57.244Z,97.19
2017-09-27T10:51:56.980Z,96.61
2017-09-27T10:52:56.981Z,95.6
2017-09-27T10:53:57.001Z,94.92
2017-09-27T10:54:57.349Z,94.73
2017-09-27T10:55:57.050Z,94.1
2017-09-27T10:56:57.093Z,93.53
2017-09-27T10:57:57.102Z,94.3
2017-09-27T10:59:12.035Z,93.72
2017-09-27T10:59:57.494Z,93.82
2017-09-27T11:02:57.225Z,95.07
2017-09-27T11:03:57.571Z,94.73
2017-09-27T11:04:57.595Z,94.45
2017-09-27T11:05:57.616Z,94.45
2017-09-27T11:06:57.683Z,94.35
2017-09-27T11:07:57.350Z,95.07
2017-09-27T11:08:57.378Z,95.12
2017-09-27T11:09:57.729Z,94.15
2017-09-27T11:10:57.429Z,94.35
2017-09-27T11:11:57.774Z,95.07
2017-09-27T11:13:57.813Z,95.17
2017-09-27T11:14:57.839Z,94.83
2017-09-27T11:16:57.887Z,94.73
2017-09-27T11:17:57.908Z,94.64
2017-09-27T11:18:57.618Z,95.31
2017-09-27T11:20:57.986Z,92.38
2017-09-27T11:21:58.010Z,91.6
2017-09-27T11:22:58.034Z,92.38
2017-09-27T11:23:58.062Z,91.7
2017-09-27T11:24:58.087Z,91.99
2017-09-27T11:25:57.792Z,91.41
2017-09-27T11:26:57.815Z,90.64
2017-09-27T11:27:57.842Z,90.97
2017-09-27T11:28:58.182Z,91.07
2017-09-27T11:29:57.890Z,90.69
2017-09-27T11:31:12.826Z,90.55
2017-09-27T11:31:57.939Z,91.31
2017-09-27T11:32:58.284Z,90.35
2017-09-27T11:33:58.311Z,91.13
2017-09-27T11:34:58.333Z,92.08
2017-09-27T11:35:58.359Z,92.47
2017-09-27T11:36:58.067Z,92.13
2017-09-27T11:37:58.415Z,91.94
2017-09-27T11:38:58.433Z,91.79
2017-09-27T11:39:58.460Z,90.34
2017-09-27T11:40:58.517Z,90.64
2017-09-27T11:41:58.510Z,90.44
2017-09-27T11:42:58.213Z,90.25
2017-09-27T11:43:58.560Z,90.25
2017-09-27T11:44:58.630Z,90.11
2017-09-27T11:45:58.608Z,89.63
2017-09-27T11:47:13.224Z,88.95
2017-09-27T11:47:58.657Z,89.09
2017-09-27T11:48:58.680Z,88.9
2017-09-27T11:49:58.720Z,88.81
2017-09-27T11:50:58.733Z,88.85
2017-09-27T11:51:58.758Z,89.15
2017-09-27T11:52:58.781Z,89.39
2017-09-27T11:53:58.812Z,88.71
2017-09-27T11:54:58.832Z,88.56
2017-09-27T11:55:58.861Z,87.17
2017-09-27T11:56:58.886Z,87.26
2017-09-27T11:57:58.593Z,88.51
2017-09-27T11:58:58.935Z,88.32
2017-09-27T11:59:58.639Z,88.42
2017-09-27T12:00:58.984Z,88.23
2017-09-27T12:01:59.013Z,88.32
2017-09-27T12:03:13.624Z,87.3
2017-09-27T12:03:59.060Z,86.63
2017-09-27T12:05:58.790Z,85.96
2017-09-27T12:06:58.816Z,85.42
2017-09-27T12:07:59.160Z,86.19
2017-09-27T12:08:58.865Z,86.29
2017-09-27T12:09:59.214Z,84.84
2017-09-27T12:10:58.916Z,84.84
2017-09-27T12:11:59.265Z,85.57
2017-09-27T12:12:59.288Z,85.38
2017-09-27T12:13:59.309Z,85.96
2017-09-27T12:14:59.339Z,86.25
2017-09-27T12:15:59.361Z,86.05
2017-09-27T12:16:59.386Z,86.44
2017-09-27T12:17:59.411Z,86.82
2017-09-27T12:19:14.028Z,86.25
2017-09-27T12:19:59.146Z,86.54
2017-09-27T12:21:59.517Z,86.05
2017-09-27T12:22:59.539Z,86.25
2017-09-27T12:23:59.614Z,86.88
2017-09-27T12:24:59.588Z,86.98
2017-09-27T12:25:59.614Z,88.61
2017-09-27T12:26:59.320Z,87.94
2017-09-27T12:27:59.670Z,87.55
2017-09-27T12:28:59.687Z,87.26
2017-09-27T12:29:59.723Z,87.36
2017-09-27T12:30:59.740Z,88.13
2017-09-27T12:31:59.765Z,88.51
2017-09-27T12:32:59.791Z,88.47
2017-09-27T12:34:14.408Z,87.84
2017-09-27T12:34:59.839Z,88.04
2017-09-27T12:35:59.877Z,87.94
2017-09-27T12:36:59.572Z,87.74
2017-09-27T12:37:59.599Z,87.84
2017-09-27T12:38:59.939Z,87.41
2017-09-27T12:39:59.969Z,88.13
2017-09-27T12:42:00.017Z,88.18
2017-09-27T12:43:00.046Z,88.76
2017-09-27T12:43:59.745Z,87.8
2017-09-27T12:45:00.092Z,88.47
2017-09-27T12:46:00.116Z,87.7
2017-09-27T12:47:00.141Z,88.47
2017-09-27T12:48:00.166Z,87.03
2017-09-27T12:49:00.192Z,87.51
2017-09-27T12:49:59.897Z,86.65
2017-09-27T12:50:59.921Z,86.65
2017-09-27T12:52:00.264Z,87.51
2017-09-27T12:53:00.287Z,87.6
2017-09-27T12:55:00.339Z,87.03
2017-09-27T12:56:00.049Z,86.93
2017-09-27T12:57:00.395Z,86.83
2017-09-27T12:58:00.416Z,87.84
2017-09-27T13:00:00.465Z,85.47
2017-09-27T13:01:00.492Z,86.05
2017-09-27T13:02:00.194Z,85.67
2017-09-27T13:03:00.539Z,85.28
2017-09-27T13:04:00.567Z,84.8
2017-09-27T13:05:00.270Z,84.32
2017-09-27T13:06:15.207Z,84.12
2017-09-27T13:07:00.322Z,83.74
2017-09-27T13:08:00.347Z,83.74
2017-09-27T13:09:00.371Z,83.64
2017-09-27T13:10:00.715Z,84.52
2017-09-27T13:11:00.423Z,84.03
2017-09-27T13:12:00.763Z,83.84
2017-09-27T13:13:00.473Z,83.55
2017-09-27T13:14:00.815Z,83.7
2017-09-27T13:15:00.844Z,84.09
2017-09-27T13:16:00.869Z,83.89
2017-09-27T13:17:00.890Z,84.09
2017-09-27T13:18:00.914Z,84.72
2017-09-27T13:19:00.943Z,85.58
2017-09-27T13:20:00.966Z,86.07
2017-09-27T13:21:00.992Z,86.65
2017-09-27T13:22:15.610Z,86.55
2017-09-27T13:23:01.041Z,86.07
2017-09-27T13:24:01.068Z,85.68
2017-09-27T13:25:01.094Z,86.31
2017-09-27T13:26:01.118Z,86.07
2017-09-27T13:27:01.138Z,86.6
2017-09-27T13:28:01.166Z,86.69
2017-09-27T13:29:01.192Z,86.02
2017-09-27T13:30:01.218Z,86.12
2017-09-27T13:31:01.242Z,85.93
2017-09-27T13:32:01.267Z,86.89
2017-09-27T13:33:01.291Z,86.02
2017-09-27T13:34:01.316Z,86.6
2017-09-27T13:35:01.342Z,87.18
2017-09-27T13:36:01.046Z,86.99
2017-09-27T13:37:01.072Z,86.79
2017-09-27T13:38:16.007Z,86.89
2017-09-27T13:39:01.443Z,86.65
2017-09-27T13:40:01.461Z,86.51
2017-09-27T13:42:02.515Z,85.74
2017-09-27T13:43:01.538Z,86.69
2017-09-27T13:44:01.567Z,86.6
2017-09-27T13:45:01.587Z,86.31
2017-09-27T13:46:01.611Z,86.6
2017-09-27T13:47:01.639Z,86.02
2017-09-27T13:48:01.665Z,85.87